createdAt,value
2019-01-20T00:01:28.952Z,9.14
2019-01-20T00:06:36.636Z,9.16
2019-01-20T00:11:44.233Z,9.36
2019-01-20T00:16:51.944Z,9.27
2019-01-20T00:21:59.556Z,7.67
2019-01-20T00:27:07.291Z,8.13
2019-01-20T00:32:14.927Z,8.99
2019-01-20T00:37:22.664Z,8.54
2019-01-20T00:42:30.284Z,13.04
2019-01-20T00:47:37.955Z,9.18
2019-01-20T00:52:45.589Z,8.28
2019-01-20T00:57:53.299Z,8.84
2019-01-20T01:03:00.952Z,9.42
2019-01-20T01:08:08.636Z,9.37
2019-01-20T01:13:16.255Z,8.96
2019-01-20T01:18:23.920Z,10.18
2019-01-20T01:23:31.538Z,9.36
2019-01-20T01:28:39.195Z,9.37
2019-01-20T01:33:46.817Z,9.14
2019-01-20T01:38:54.455Z,9.31
2019-01-20T01:44:02.072Z,8.82
2019-01-20T01:49:09.736Z,10.57
2019-01-20T01:54:17.393Z,9.56
2019-01-20T01:59:25.051Z,9.08
2019-01-20T02:04:32.656Z,8.93
2019-01-20T02:09:40.384Z,9.08
2019-01-20T02:14:48.032Z,9.64
2019-01-20T02:19:55.697Z,8.98
2019-01-20T02:25:03.343Z,8.69
2019-01-20T02:30:10.981Z,9.76
2019-01-20T02:35:18.801Z,9.64
2019-01-20T02:40:26.467Z,9.19
2019-01-20T02:45:34.077Z,9.08
2019-01-20T02:50:41.752Z,9.01
2019-01-20T02:55:49.397Z,8.55
2019-01-20T03:00:57.043Z,9.04
2019-01-20T03:06:04.665Z,8.46
2019-01-20T03:11:12.330Z,8.19
2019-01-20T03:16:19.944Z,8.37
2019-01-20T03:21:27.629Z,8.49
2019-01-20T03:26:35.246Z,8.79
2019-01-20T03:31:42.912Z,9.14
2019-01-20T03:36:50.520Z,9.49
2019-01-20T03:41:58.209Z,8.72
2019-01-20T03:47:05.851Z,8.95
2019-01-20T03:52:13.485Z,9.10
2019-01-20T03:57:21.133Z,10.26
2019-01-20T04:02:28.785Z,9.13
2019-01-20T04:07:36.423Z,8.49
2019-01-20T04:12:44.165Z,9.67
2019-01-20T04:17:51.805Z,9.09
2019-01-20T04:22:59.501Z,8.60
2019-01-20T04:28:07.133Z,8.59
2019-01-20T04:33:14.793Z,8.42
2019-01-20T04:38:22.399Z,9.16
2019-01-20T04:43:30.105Z,9.09
2019-01-20T04:48:37.733Z,9.36
2019-01-20T04:53:45.433Z,9.83
2019-01-20T04:58:53.087Z,8.83
2019-01-20T05:04:00.745Z,8.40
2019-01-20T05:09:08.364Z,8.53
2019-01-20T05:14:16.049Z,7.64
2019-01-20T05:19:23.701Z,7.49
2019-01-20T05:24:31.451Z,8.57
2019-01-20T05:29:39.078Z,8.21
2019-01-20T05:34:46.720Z,7.47
2019-01-20T05:39:54.361Z,7.00
2019-01-20T05:45:02.075Z,7.76
2019-01-20T05:50:09.685Z,7.75
2019-01-20T05:55:17.376Z,7.37
2019-01-20T06:00:25.011Z,7.47
2019-01-20T06:05:32.704Z,7.94
2019-01-20T06:10:40.313Z,6.57
2019-01-20T06:15:48.052Z,6.13
2019-01-20T06:20:55.708Z,5.72
2019-01-20T06:26:03.390Z,5.50
2019-01-20T06:31:11.041Z,6.58
2019-01-20T06:36:18.526Z,5.53
2019-01-20T06:41:26.148Z,6.92
2019-01-20T06:46:41.314Z,5.85
2019-01-20T06:51:38.428Z,6.32
2019-01-20T06:56:46.126Z,5.36
2019-01-20T07:01:53.768Z,6.08
2019-01-20T07:07:01.495Z,6.28
2019-01-20T07:12:09.133Z,5.66
2019-01-20T07:17:16.790Z,5.84
2019-01-20T07:22:24.436Z,5.47
2019-01-20T07:27:32.132Z,5.77
2019-01-20T07:32:39.769Z,5.25
2019-01-20T07:37:47.428Z,4.98
2019-01-20T07:42:55.079Z,5.74
2019-01-20T07:48:02.757Z,6.01
2019-01-20T07:53:10.409Z,5.71
2019-01-20T07:58:18.114Z,5.50
2019-01-20T08:03:25.778Z,5.51
2019-01-20T08:08:33.444Z,7.61
2019-01-20T08:13:41.075Z,5.47
2019-01-20T08:18:48.745Z,6.00
2019-01-20T08:23:56.366Z,5.47
2019-01-20T08:29:04.053Z,5.32
2019-01-20T08:34:11.863Z,5.74
2019-01-20T08:39:19.481Z,5.71
2019-01-20T08:44:27.109Z,5.08
2019-01-20T08:49:34.734Z,5.43
2019-01-20T08:54:42.426Z,6.12
2019-01-20T08:59:50.050Z,5.59
2019-01-20T09:04:57.689Z,6.20
2019-01-20T09:10:05.342Z,6.66
2019-01-20T09:15:13.108Z,6.47
2019-01-20T09:20:20.732Z,6.39
2019-01-20T09:25:28.369Z,6.14
2019-01-20T09:30:35.985Z,5.68
2019-01-20T09:35:43.688Z,6.91
2019-01-20T09:40:51.313Z,5.86
2019-01-20T09:45:59.023Z,5.99
2019-01-20T09:51:06.649Z,6.22
2019-01-20T09:56:14.336Z,6.70
2019-01-20T10:01:21.986Z,7.14
2019-01-20T10:06:29.645Z,6.57
2019-01-20T10:11:37.276Z,9.73
2019-01-20T10:16:44.937Z,10.16
2019-01-20T10:21:52.628Z,6.54
2019-01-20T10:27:00.281Z,7.87
2019-01-20T10:32:07.937Z,8.34
2019-01-20T10:37:15.561Z,7.94
2019-01-20T10:42:23.264Z,8.16
2019-01-20T10:47:30.890Z,8.07
2019-01-20T10:52:38.577Z,7.31
2019-01-20T10:57:46.188Z,8.26
2019-01-20T11:02:53.842Z,9.21
2019-01-20T11:08:01.486Z,8.75
2019-01-20T11:13:09.180Z,8.66
2019-01-20T11:18:16.788Z,8.32
2019-01-20T11:23:24.479Z,8.62
2019-01-20T11:28:32.137Z,9.01
2019-01-20T11:33:39.869Z,7.56
2019-01-20T11:38:47.483Z,8.13
2019-01-20T11:43:55.164Z,8.10
2019-01-20T11:49:02.789Z,9.20
2019-01-20T11:54:10.763Z,8.91
2019-01-20T11:59:18.395Z,7.77
2019-01-20T12:04:26.072Z,8.39
2019-01-20T12:09:33.693Z,8.23
2019-01-20T12:14:41.725Z,9.35
2019-01-20T12:19:49.366Z,7.78
2019-01-20T12:24:57.108Z,7.89
2019-01-20T12:30:04.725Z,6.94
2019-01-20T12:35:12.379Z,8.22
2019-01-20T12:40:20.003Z,8.04
2019-01-20T12:45:28.018Z,6.78
2019-01-20T12:50:35.677Z,8.42
2019-01-20T12:55:43.316Z,6.96
2019-01-20T13:00:50.962Z,7.68
2019-01-20T13:05:58.892Z,7.91
2019-01-20T13:11:06.627Z,7.99
2019-01-20T13:16:14.250Z,8.00
2019-01-20T13:21:21.922Z,7.84
2019-01-20T13:26:29.557Z,8.09
2019-01-20T13:31:37.238Z,7.90
2019-01-20T13:36:44.873Z,7.93
2019-01-20T13:41:52.609Z,8.02
2019-01-20T13:47:00.308Z,8.53
2019-01-20T13:52:07.977Z,7.47
2019-01-20T13:57:15.648Z,8.21
2019-01-20T14:02:23.317Z,8.56
2019-01-20T14:07:30.965Z,9.18
2019-01-20T14:12:38.677Z,8.55
2019-01-20T14:17:46.292Z,7.68
2019-01-20T14:22:53.941Z,8.88
2019-01-20T14:28:01.569Z,8.33
2019-01-20T14:33:09.318Z,8.86
2019-01-20T14:38:16.754Z,8.55
2019-01-20T14:43:24.398Z,8.62
2019-01-20T14:48:32.242Z,7.91
2019-01-20T14:53:39.738Z,8.58
2019-01-20T14:58:47.554Z,8.42
2019-01-20T15:03:55.019Z,8.38
2019-01-20T15:09:02.660Z,8.20
2019-01-20T15:14:10.372Z,7.60
2019-01-20T15:19:18.009Z,8.13
2019-01-20T15:24:31.058Z,8.31
2019-01-20T15:29:32.880Z,10.30
2019-01-20T15:34:40.565Z,9.63
2019-01-20T15:39:48.185Z,9.36
2019-01-20T15:44:55.861Z,9.38
2019-01-20T15:50:03.534Z,10.08
2019-01-20T15:55:11.160Z,9.40
2019-01-20T16:00:18.809Z,10.11
2019-01-20T16:05:26.532Z,9.39
2019-01-20T16:10:34.196Z,9.25
2019-01-20T16:15:41.857Z,9.44
2019-01-20T16:20:49.479Z,9.91
2019-01-20T16:25:57.142Z,11.34
2019-01-20T16:31:04.800Z,10.33
2019-01-20T16:36:12.445Z,10.00
2019-01-20T16:41:20.102Z,10.75
2019-01-20T16:46:27.735Z,12.01
2019-01-20T16:51:35.457Z,11.43
2019-01-20T16:56:43.074Z,12.74
2019-01-20T17:01:50.882Z,12.51
2019-01-20T17:06:58.496Z,13.18
2019-01-20T17:12:06.191Z,13.26
2019-01-20T17:17:13.829Z,13.99
2019-01-20T17:22:21.521Z,12.89
2019-01-20T17:27:29.159Z,14.74
2019-01-20T17:32:36.856Z,16.16
2019-01-20T17:37:44.530Z,14.83
2019-01-20T17:42:52.265Z,13.10
2019-01-20T17:47:59.961Z,13.44
2019-01-20T17:53:07.608Z,16.05
2019-01-20T17:58:15.250Z,17.10
2019-01-20T18:03:22.893Z,15.01
2019-01-20T18:08:30.961Z,14.82
2019-01-20T18:13:38.605Z,15.69
2019-01-20T18:18:46.320Z,14.05
2019-01-20T18:23:53.973Z,21.26
2019-01-20T18:29:01.679Z,14.69
2019-01-20T18:34:09.318Z,16.33
2019-01-20T18:39:16.988Z,17.53
2019-01-20T18:44:24.956Z,17.42
2019-01-20T18:49:32.613Z,20.01
2019-01-20T18:54:40.265Z,22.96
2019-01-20T18:59:47.934Z,21.56
2019-01-20T19:04:55.571Z,20.37
2019-01-20T19:10:03.343Z,20.36
2019-01-20T19:15:10.992Z,22.12
2019-01-20T19:20:18.677Z,19.97
2019-01-20T19:25:26.372Z,20.12
2019-01-20T19:30:34.049Z,19.96
2019-01-20T19:35:41.677Z,33.01
2019-01-20T19:40:49.398Z,20.37
2019-01-20T19:45:57.030Z,20.15
2019-01-20T19:51:04.696Z,20.11
2019-01-20T19:56:12.360Z,19.26
2019-01-20T20:01:20.015Z,23.14
2019-01-20T20:06:27.643Z,23.08
2019-01-20T20:11:35.325Z,26.56
2019-01-20T20:16:42.975Z,26.30
2019-01-20T20:21:50.708Z,23.96
2019-01-20T20:26:58.402Z,22.41
2019-01-20T20:32:06.109Z,22.81
2019-01-20T20:37:13.753Z,20.90
2019-01-20T20:42:21.499Z,19.40
2019-01-20T20:47:29.150Z,20.87
2019-01-20T20:52:36.869Z,18.95
2019-01-20T20:57:44.498Z,18.81
2019-01-20T21:02:52.204Z,18.93
2019-01-20T21:07:59.864Z,19.02
2019-01-20T21:13:07.584Z,18.49
2019-01-20T21:18:15.233Z,19.76
2019-01-20T21:23:22.880Z,20.53
2019-01-20T21:28:30.577Z,20.67
2019-01-20T21:33:38.217Z,21.32
2019-01-20T21:38:45.857Z,27.13
2019-01-20T21:43:53.504Z,20.14
2019-01-20T21:49:01.258Z,21.28
2019-01-20T21:54:08.882Z,19.38
2019-01-20T21:59:16.564Z,18.11
2019-01-20T22:04:24.204Z,17.18
2019-01-20T22:09:31.870Z,16.78
2019-01-20T22:14:39.505Z,18.88
2019-01-20T22:19:47.231Z,18.79
2019-01-20T22:24:54.868Z,18.64
2019-01-20T22:30:02.569Z,18.22
2019-01-20T22:35:10.182Z,19.46
2019-01-20T22:40:17.855Z,19.77
2019-01-20T22:45:25.499Z,20.22
2019-01-20T22:50:33.135Z,19.29
2019-01-20T22:55:40.768Z,18.32
2019-01-20T23:00:48.409Z,17.29
2019-01-20T23:05:56.043Z,18.57
2019-01-20T23:11:03.692Z,17.60
2019-01-20T23:16:11.356Z,18.83
2019-01-20T23:21:19.063Z,20.65
2019-01-20T23:26:26.699Z,19.85
2019-01-20T23:31:34.358Z,17.71
2019-01-20T23:36:42.011Z,19.28
2019-01-20T23:41:49.703Z,20.34
2019-01-20T23:46:57.362Z,18.24
2019-01-20T23:52:05.067Z,18.55
2019-01-20T23:57:12.700Z,17.85
